.
WxDataArchive / Data Records for 2009-12-15
2009-12-14 December 2009 2009-12-16

Data Records for Tuesday, 15 December 2009

Time	Temp	Chill	HIndex	Humid	Dewpt	 Wind 	HiWind	WindDir	Rain 	Barom 
-----	----	-----	------	-----	-----	------	------	-------	-----	----- 
00:00	38.5	38.5	38.5	87	35.0	3	5	270	0.00	29.973 
00:05	38.5	38.5	38.5	87	35.0	2	4	315	0.00	29.973 
00:10	38.3	38.3	38.3	87	34.8	2	4	248	0.00	29.973 
00:15	38.3	38.3	38.3	88	35.1	1	4	248	0.00	29.976 
00:20	38.2	38.2	38.2	88	35.0	1	5	248	0.00	29.976 
00:25	38.2	38.2	38.2	88	35.0	1	4	270	0.00	29.976 
00:30	38.2	38.2	38.2	88	35.0	2	5	270	0.00	29.987 
00:35	38.0	38.0	38.0	88	34.8	2	4	225	0.00	29.987 
00:40	38.0	38.0	38.0	88	34.8	2	5	248	0.00	29.987 
00:45	38.0	38.0	38.0	88	34.8	1	4	248	0.00	29.994 
00:50	38.0	38.0	38.0	88	34.8	1	3	248	0.00	29.994 
00:55	37.9	37.9	37.9	88	34.7	2	6	248	0.00	29.994 
01:00	37.9	37.9	37.9	88	34.7	2	6	270	0.00	30.003 
01:05	37.8	37.8	37.8	88	34.6	1	4	248	0.00	30.003 
01:10	37.6	37.6	37.6	88	34.4	2	5	315	0.00	30.003 
01:15	37.3	37.3	37.3	88	34.1	2	6	270	0.00	30.010 
01:20	36.9	36.9	36.9	89	34.0	2	5	315	0.00	30.010 
01:25	36.6	36.6	36.6	90	33.9	2	5	338	0.00	30.010 
01:30	36.3	36.3	36.3	90	33.7	2	5	338	0.00	30.022 
01:35	36.0	36.0	36.0	90	33.4	1	4	270	0.00	30.022 
01:40	35.8	35.8	35.8	90	33.2	2	6	270	0.00	30.022 
01:45	35.5	35.5	35.5	90	32.9	2	5	248	0.00	30.036 
01:50	35.3	35.3	35.3	90	32.7	2	4	270	0.00	30.036 
01:55	35.0	35.0	35.0	89	32.1	3	6	270	0.00	30.036 
02:00	34.6	34.6	34.6	88	31.4	3	6	270	0.00	30.039 
02:05	34.4	34.4	34.4	88	31.2	2	5	292	0.00	30.039 
02:10	34.1	34.1	34.1	88	30.9	2	9	315	0.00	30.039 
02:15	34.0	34.0	34.0	88	30.8	1	5	315	0.00	30.051 
02:20	34.0	34.0	34.0	88	30.8	2	4	270	0.00	30.051 
02:25	33.8	33.8	33.8	88	30.6	2	5	270	0.00	30.051 
02:30	33.7	33.7	33.7	88	30.5	3	5	270	0.00	30.055 
02:35	33.5	33.5	33.5	88	30.3	3	6	270	0.00	30.055 
02:40	33.4	33.4	33.4	88	30.2	3	6	270	0.00	30.055 
02:45	33.2	33.2	33.2	87	29.8	3	5	270	0.00	30.063 
02:50	33.1	33.1	33.1	87	29.7	2	5	270	0.00	30.063 
02:55	33.1	33.1	33.1	87	29.7	2	5	315	0.00	30.063 
03:00	32.8	32.8	32.8	87	29.4	3	6	270	0.00	30.069 
03:05	32.8	32.8	32.8	87	29.4	3	7	315	0.00	30.069 
03:10	32.8	32.8	32.8	86	29.1	2	5	292	0.00	30.069 
03:15	32.7	32.7	32.7	86	29.0	3	7	270	0.00	30.076 
03:20	32.7	32.7	32.7	86	29.0	1	3	292	0.00	30.076 
03:25	32.7	32.7	32.7	85	28.7	2	5	248	0.00	30.076 
03:30	32.7	32.7	32.7	86	29.0	1	3	270	0.00	30.076 
03:35	32.5	32.5	32.5	86	28.8	2	5	270	0.00	30.076 
03:40	32.4	32.4	32.4	85	28.4	3	5	270	0.00	30.076 
03:45	32.2	32.2	32.2	85	28.2	2	6	270	0.00	30.079 
03:50	32.2	32.2	32.2	84	27.9	2	5	270	0.00	30.079 
03:55	31.9	31.9	31.9	84	27.6	2	4	270	0.00	30.079 
04:00	31.8	31.8	31.8	84	27.5	2	4	270	0.00	30.084 
04:05	31.8	31.8	31.8	84	27.5	2	5	270	0.00	30.084 
04:10	31.8	31.8	31.8	83	27.2	2	7	270	0.00	30.084 
04:15	31.8	31.8	31.8	83	27.2	2	3	270	0.00	30.087 
04:20	31.8	31.8	31.8	83	27.2	2	5	270	0.00	30.087 
04:25	31.8	31.8	31.8	83	27.2	2	5	248	0.00	30.087 
04:30	31.8	31.8	31.8	82	26.9	3	5	270	0.00	30.088 
04:35	31.8	31.8	31.8	82	26.9	2	4	248	0.00	30.088 
04:40	31.8	31.8	31.8	83	27.2	1	4	292	0.00	30.088 
04:45	31.8	31.8	31.8	83	27.2	2	6	270	0.00	30.089 
04:50	31.8	31.8	31.8	83	27.2	1	4	315	0.00	30.089 
04:55	31.8	31.8	31.8	83	27.2	2	5	270	0.00	30.089 
05:00	31.6	31.6	31.6	83	27.0	2	7	248	0.00	30.089 
05:05	31.6	31.6	31.6	83	27.0	3	6	270	0.00	30.089 
05:10	31.6	31.6	31.6	84	27.3	2	6	270	0.00	30.089 
05:15	31.6	31.6	31.6	84	27.3	2	5	248	0.00	30.094 
05:20	31.6	31.6	31.6	84	27.3	2	5	270	0.00	30.094 
05:25	31.6	31.6	31.6	85	27.6	2	5	248	0.00	30.094 
05:30	31.6	31.6	31.6	85	27.6	2	5	270	0.00	30.103 
05:35	31.6	31.6	31.6	85	27.6	2	4	225	0.00	30.103 
05:40	31.6	31.6	31.6	86	27.9	2	5	270	0.00	30.103 
05:45	31.5	31.5	31.5	86	27.8	2	6	292	0.00	30.105 
05:50	31.5	31.5	31.5	87	28.1	2	4	270	0.00	30.105 
05:55	31.5	31.5	31.5	87	28.1	3	5	292	0.00	30.105 
06:00	31.5	31.5	31.5	87	28.1	2	4	248	0.00	30.107 
06:05	31.5	31.5	31.5	87	28.1	2	6	270	0.00	30.107 
06:10	31.5	31.5	31.5	88	28.4	2	5	248	0.00	30.107 
06:15	31.3	31.3	31.3	88	28.2	2	4	248	0.00	30.118 
06:20	31.3	31.3	31.3	88	28.2	2	4	248	0.00	30.118 
06:25	31.3	31.3	31.3	88	28.2	2	4	248	0.00	30.118 
06:30	31.3	31.3	31.3	88	28.2	2	4	270	0.00	30.124 
06:35	31.3	31.3	31.3	88	28.2	2	5	270	0.00	30.124 
06:40	31.3	31.3	31.3	88	28.2	2	5	248	0.00	30.124 
06:45	31.3	31.3	31.3	89	28.4	2	3	248	0.00	30.132 
06:50	31.2	31.2	31.2	89	28.3	2	4	248	0.00	30.132 
06:55	31.2	31.2	31.2	89	28.3	2	4	270	0.00	30.132 
07:00	31.2	31.2	31.2	90	28.6	2	5	248	0.00	30.143 
07:05	31.2	31.2	31.2	90	28.6	2	4	270	0.00	30.143 
07:10	31.2	31.2	31.2	90	28.6	1	4	248	0.00	30.143 
07:15	31.2	31.2	31.2	90	28.6	2	7	248	0.00	30.149 
07:20	31.2	31.2	31.2	90	28.6	2	5	248	0.00	30.149 
07:25	31.3	31.3	31.3	90	28.7	2	4	248	0.00	30.149 
07:30	31.3	31.3	31.3	90	28.7	2	4	248	0.00	30.153 
07:35	31.3	31.3	31.3	90	28.7	2	5	248	0.00	30.153 
07:40	31.5	31.5	31.5	90	28.9	1	4	248	0.00	30.153 
07:45	31.5	31.5	31.5	90	28.9	3	7	270	0.00	30.152 
07:50	31.5	31.5	31.5	89	28.6	2	4	248	0.00	30.152 
07:55	31.5	31.5	31.5	90	28.9	2	5	248	0.00	30.152 
08:00	31.6	31.6	31.6	90	29.0	3	7	270	0.00	30.164 
08:05	31.6	31.6	31.6	90	29.0	3	5	270	0.00	30.164 
08:10	31.6	31.6	31.6	90	29.0	2	7	270	0.00	30.164 
08:15	31.6	31.6	31.6	90	29.0	2	7	270	0.00	30.176 
08:20	31.6	31.6	31.6	90	29.0	2	4	292	0.00	30.176 
08:25	31.6	31.6	31.6	90	29.0	3	5	270	0.00	30.176 
08:30	31.6	31.6	31.6	90	29.0	3	5	270	0.00	30.187 
08:35	31.8	31.8	31.8	90	29.2	2	4	270	0.00	30.187 
08:40	31.8	31.8	31.8	90	29.2	3	6	270	0.00	30.187 
08:45	31.8	31.8	31.8	90	29.2	2	5	270	0.00	30.201 
08:50	31.8	31.8	31.8	90	29.2	2	6	248	0.00	30.201 
08:55	31.8	31.8	31.8	90	29.2	2	5	270	0.00	30.201 
09:00	31.8	31.8	31.8	90	29.2	2	6	270	0.00	30.206 
09:05	31.6	31.6	31.6	90	29.0	2	6	270	0.00	30.206 
09:10	31.6	31.6	31.6	90	29.0	3	9	270	0.00	30.206 
09:15	31.6	31.6	31.6	90	29.0	2	4	270	0.00	30.220 
09:20	31.6	31.6	31.6	90	29.0	3	7	270	0.00	30.220 
09:25	31.6	31.6	31.6	90	29.0	2	4	270	0.00	30.220 
09:30	31.5	31.5	31.5	90	28.9	3	5	270	0.00	30.223 
09:35	31.5	31.5	31.5	90	28.9	2	4	270	0.00	30.223 
09:40	31.5	31.5	31.5	90	28.9	1	3	248	0.00	30.223 
09:45	31.5	31.5	31.5	90	28.9	2	4	270	0.00	30.233 
09:50	31.3	31.3	31.3	90	28.7	3	6	270	0.00	30.233 
09:55	31.3	31.3	31.3	89	28.4	3	6	270	0.00	30.233 
10:00	31.3	31.3	31.3	89	28.4	3	7	248	0.00	30.239 
10:05	31.2	31.2	31.2	89	28.3	2	5	270	0.00	30.239 
10:10	31.2	31.2	31.2	89	28.3	2	5	270	0.00	30.239 
10:15	31.2	31.2	31.2	89	28.3	2	6	270	0.00	30.252 
10:20	31.0	31.0	31.0	89	28.1	2	5	248	0.00	30.252 
10:25	31.0	31.0	31.0	89	28.1	3	5	270	0.00	30.252 
10:30	31.0	31.0	31.0	89	28.1	2	4	270	0.00	30.255 
10:35	31.0	31.0	31.0	89	28.1	2	5	270	0.00	30.255 
10:40	31.0	31.0	31.0	89	28.1	2	7	270	0.00	30.255 
10:45	31.2	31.2	31.2	88	28.1	2	6	270	0.00	30.254 
10:50	31.2	31.2	31.2	88	28.1	2	3	270	0.00	30.254 
10:55	31.2	31.2	31.2	88	28.1	2	4	270	0.00	30.254 
11:00	31.0	31.0	31.0	88	27.9	2	4	292	0.00	30.257 
11:05	30.9	30.9	30.9	88	27.8	3	5	270	0.00	30.257 
11:10	30.9	30.9	30.9	87	27.5	3	5	270	0.00	30.257 
11:15	30.7	30.7	30.7	87	27.3	3	6	270	0.00	30.260 
11:20	30.7	30.7	30.7	87	27.3	3	6	270	0.00	30.260 
11:25	30.7	30.7	30.7	87	27.3	2	5	248	0.00	30.260 
11:30	30.7	30.7	30.7	87	27.3	2	5	248	0.00	30.258 
11:35	30.7	30.7	30.7	87	27.3	2	4	270	0.00	30.258 
11:40	30.6	30.6	30.6	86	26.9	3	5	248	0.00	30.258 
11:45	30.4	30.4	30.4	86	26.7	2	5	270	0.00	30.260 
11:50	30.4	30.4	30.4	86	26.7	3	5	270	0.00	30.260 
11:55	30.3	30.3	30.3	86	26.6	3	5	270	0.00	30.260 
12:00	30.4	30.4	30.4	85	26.4	3	7	270	0.00	30.263 
12:05	30.4	26.2	30.4	84	26.2	4	9	270	0.00	30.263 
12:10	30.7	30.7	30.7	83	26.2	3	5	270	0.00	30.263 
12:15	30.7	30.7	30.7	83	26.2	3	9	270	0.00	30.258 
12:20	30.6	30.6	30.6	83	26.1	3	6	270	0.00	30.258 
12:25	30.6	30.6	30.6	83	26.1	3	5	270	0.00	30.258 
12:30	30.6	30.6	30.6	82	25.8	3	7	292	0.00	30.252 
12:35	30.9	30.9	30.9	81	25.8	2	6	270	0.00	30.252 
12:40	30.9	30.9	30.9	80	25.5	3	7	270	0.00	30.252 
12:45	30.7	30.7	30.7	79	25.0	3	6	292	0.00	30.247 
12:50	30.6	30.6	30.6	79	24.9	2	5	248	0.00	30.247 
12:55	30.3	26.1	30.3	80	24.9	4	10	270	0.00	30.247 
13:00	30.1	30.1	30.1	80	24.7	3	5	270	0.00	30.253 
13:05	30.1	30.1	30.1	81	25.0	2	5	270	0.00	30.253 
13:10	30.1	30.1	30.1	81	25.0	3	5	270	0.00	30.253 
13:15	29.8	29.8	29.8	80	24.4	3	5	270	0.00	30.254 
13:20	29.5	29.5	29.5	81	24.4	2	5	270	0.00	30.254 
13:25	29.4	25.1	29.4	81	24.3	4	9	270	0.00	30.254 
13:30	29.3	25.0	29.3	80	23.9	4	7	270	0.00	30.259 
13:35	29.1	24.7	29.1	80	23.7	4	9	248	0.00	30.259 
13:40	29.1	29.1	29.1	80	23.7	3	8	270	0.00	30.259 
13:45	29.0	24.6	29.0	79	23.3	4	10	270	0.00	30.263 
13:50	29.0	29.0	29.0	80	23.6	2	6	248	0.00	30.263 
13:55	29.0	29.0	29.0	79	23.3	3	7	248	0.00	30.263 
14:00	28.8	28.8	28.8	78	22.8	3	6	270	0.00	30.273 
14:05	28.8	24.4	28.8	76	22.2	4	11	270	0.00	30.273 
14:10	28.7	24.3	28.7	75	21.8	4	8	270	0.00	30.273 
14:15	28.5	24.0	28.5	76	21.9	4	7	270	0.00	30.278 
14:20	28.4	23.9	28.4	74	21.2	4	7	270	0.00	30.278 
14:25	28.2	23.7	28.2	73	20.7	4	7	270	0.00	30.278 
14:30	28.2	28.2	28.2	72	20.4	3	6	270	0.00	30.295 
14:35	28.2	28.2	28.2	71	20.0	3	5	248	0.00	30.295 
14:40	27.9	27.9	27.9	70	19.4	3	7	270	0.00	30.295 
14:45	27.6	23.0	27.6	69	18.8	4	10	292	0.00	30.307 
14:50	27.6	27.6	27.6	69	18.8	3	5	270	0.00	30.307 
14:55	27.6	23.0	27.6	69	18.8	4	6	270	0.00	30.307 
15:00	27.3	22.6	27.3	69	18.5	4	10	270	0.00	30.313 
15:05	27.2	22.5	27.2	68	18.1	4	9	270	0.00	30.313 
15:10	27.0	22.3	27.0	68	17.9	4	9	270	0.00	30.313 
15:15	27.0	27.0	27.0	68	17.9	3	5	270	0.00	30.325 
15:20	27.0	27.0	27.0	68	17.9	3	7	270	0.00	30.325 
15:25	26.9	26.9	26.9	69	18.1	3	7	270	0.00	30.325 
15:30	26.7	26.7	26.7	68	17.6	3	7	292	0.00	30.334 
15:35	26.4	21.6	26.4	68	17.3	4	11	292	0.00	30.334 
15:40	26.1	21.3	26.1	67	16.7	4	10	315	0.00	30.334 
15:45	25.7	20.8	25.7	67	16.3	4	9	315	0.00	30.344 
15:50	25.4	25.4	25.4	67	16.0	3	7	315	0.00	30.344 
15:55	25.4	25.4	25.4	67	16.0	3	7	315	0.00	30.344 
16:00	25.3	25.3	25.3	67	15.9	3	7	315	0.00	30.358 
16:05	25.1	20.1	25.1	66	15.4	4	7	315	0.00	30.358 
16:10	25.0	25.0	25.0	66	15.3	3	9	270	0.00	30.358 
16:15	24.8	24.8	24.8	65	14.7	3	7	315	0.00	30.363 
16:20	24.8	24.8	24.8	64	14.4	3	7	270	0.00	30.363 
16:25	24.5	24.5	24.5	63	13.7	3	7	315	0.00	30.363 
16:30	24.2	24.2	24.2	62	13.1	3	10	315	0.00	30.373 
16:35	24.2	24.2	24.2	62	13.1	2	6	292	0.00	30.373 
16:40	23.9	23.9	23.9	61	12.4	3	7	338	0.00	30.373 
16:45	23.8	23.8	23.8	63	13.1	3	9	270	0.00	30.379 
16:50	23.6	23.6	23.6	62	12.5	3	7	270	0.00	30.379 
16:55	23.5	23.5	23.5	63	12.8	3	10	248	0.00	30.379 
17:00	23.3	23.3	23.3	62	12.2	2	7	292	0.00	30.388 
17:05	23.2	23.2	23.2	62	12.1	2	4	248	0.00	30.388 
17:10	23.0	17.7	23.0	61	11.6	4	9	270	0.00	30.388 
17:15	23.0	23.0	23.0	61	11.6	3	7	270	0.00	30.394 
17:20	23.0	23.0	23.0	60	11.2	3	7	270	0.00	30.394 
17:25	22.9	22.9	22.9	61	11.5	3	6	270	0.00	30.394 
17:30	22.7	22.7	22.7	60	10.9	2	6	338	0.00	30.395 
17:35	22.5	22.5	22.5	60	10.7	2	7	270	0.00	30.395 
17:40	22.4	22.4	22.4	60	10.6	3	7	270	0.00	30.395 
17:45	22.2	22.2	22.2	61	10.8	2	6	315	0.00	30.398 
17:50	22.1	22.1	22.1	61	10.7	2	5	315	0.00	30.398 
17:55	22.1	22.1	22.1	62	11.1	2	5	270	0.00	30.398 
18:00	22.1	22.1	22.1	62	11.1	2	5	270	0.00	30.409 
18:05	22.1	22.1	22.1	62	11.1	2	5	270	0.00	30.409 
18:10	22.1	22.1	22.1	62	11.1	3	7	292	0.00	30.409 
18:15	22.1	22.1	22.1	62	11.1	2	5	270	0.00	30.418 
18:20	21.9	21.9	21.9	62	10.9	2	6	270	0.00	30.418 
18:25	21.8	21.8	21.8	62	10.8	3	6	270	0.00	30.418 
18:30	21.6	21.6	21.6	62	10.6	2	5	270	0.00	30.431 
18:35	21.3	21.3	21.3	62	10.3	2	4	270	0.00	30.431 
18:40	21.1	21.1	21.1	62	10.1	1	4	292	0.00	30.431 
18:45	21.1	21.1	21.1	62	10.1	2	5	315	0.00	30.435 
18:50	21.1	21.1	21.1	62	10.1	1	4	338	0.00	30.435 
18:55	21.1	21.1	21.1	62	10.1	2	4	338	0.00	30.435 
19:00	21.1	21.1	21.1	63	10.5	1	4	338	0.00	30.445 
19:05	21.1	21.1	21.1	63	10.5	1	5	315	0.00	30.445 
19:10	21.0	21.0	21.0	63	10.4	1	5	315	0.00	30.445 
19:15	21.0	21.0	21.0	63	10.4	2	7	292	0.00	30.448 
19:20	20.8	20.8	20.8	63	10.2	1	5	338	0.00	30.448 
19:25	20.6	20.6	20.6	63	10.0	2	6	315	0.00	30.448 
19:30	20.6	20.6	20.6	63	10.0	2	6	315	0.00	30.452 
19:35	20.5	20.5	20.5	63	9.9	2	3	292	0.00	30.452 
19:40	20.5	20.5	20.5	63	9.9	2	5	315	0.00	30.452 
19:45	20.5	20.5	20.5	64	10.3	1	4	270	0.00	30.464 
19:50	20.3	20.3	20.3	64	10.1	2	5	338	0.00	30.464 
19:55	20.3	20.3	20.3	64	10.1	1	4	292	0.00	30.464 
20:00	20.3	20.3	20.3	64	10.1	2	5	270	0.00	30.475 
20:05	20.3	20.3	20.3	64	10.1	1	3	315	0.00	30.475 
20:10	20.3	20.3	20.3	64	10.1	1	4	338	0.00	30.475 
20:15	20.3	20.3	20.3	64	10.1	1	3	292	0.00	30.478 
20:20	20.5	20.5	20.5	64	10.3	1	3	0	0.00	30.478 
20:25	20.5	20.5	20.5	64	10.3	1	5	0	0.00	30.478 
20:30	20.6	20.6	20.6	64	10.4	1	3	338	0.00	30.480 
20:35	20.6	20.6	20.6	64	10.4	1	4	270	0.00	30.480 
20:40	20.6	20.6	20.6	65	10.7	1	7	270	0.00	30.480 
20:45	20.6	20.6	20.6	65	10.7	1	5	338	0.00	30.482 
20:50	20.6	20.6	20.6	64	10.4	1	6	338	0.00	30.482 
20:55	20.5	20.5	20.5	63	9.9	2	6	292	0.00	30.482 
21:00	20.5	20.5	20.5	63	9.9	2	6	338	0.00	30.481 
21:05	20.5	20.5	20.5	63	9.9	2	5	338	0.00	30.481 
21:10	20.3	20.3	20.3	63	9.7	1	3	0	0.00	30.481 
21:15	20.3	20.3	20.3	62	9.4	2	4	270	0.00	30.494 
21:20	20.2	20.2	20.2	62	9.3	1	4	292	0.00	30.494 
21:25	20.0	20.0	20.0	63	9.5	1	4	315	0.00	30.494 
21:30	19.9	19.9	19.9	63	9.4	1	3	315	0.00	30.496 
21:35	19.7	19.7	19.7	63	9.2	1	3	338	0.00	30.496 
21:40	19.7	19.7	19.7	63	9.2	1	3	315	0.00	30.496 
21:45	19.7	19.7	19.7	64	9.5	1	3	338	0.00	30.492 
21:50	19.5	19.5	19.5	64	9.3	0	2	292	0.00	30.492 
21:55	19.5	19.5	19.5	64	9.3	0	2	270	0.00	30.492 
22:00	19.5	19.5	19.5	65	9.7	0	2	270	0.00	30.490 
22:05	19.5	19.5	19.5	65	9.7	0	1	270	0.00	30.490 
22:10	19.5	19.5	19.5	66	10.0	0	1	270	0.00	30.490 
22:15	19.5	19.5	19.5	66	10.0	0	1	270	0.00	30.492 
22:20	19.5	19.5	19.5	65	9.7	1	5	292	0.00	30.492 
22:25	19.5	19.5	19.5	65	9.7	0	4	270	0.00	30.492 
22:30	19.5	19.5	19.5	65	9.7	0	2	270	0.00	30.492 
22:35	19.5	19.5	19.5	65	9.7	0	1	270	0.00	30.492 
22:40	19.5	19.5	19.5	65	9.7	0	2	270	0.00	30.492 
22:45	19.5	19.5	19.5	66	10.0	0	1	270	0.00	30.494 
22:50	19.5	19.5	19.5	66	10.0	0	4	270	0.00	30.494 
22:55	19.4	19.4	19.4	66	9.9	0	2	270	0.00	30.494 
23:00	19.4	19.4	19.4	66	9.9	0	0	---	0.00	30.496 
23:05	19.4	19.4	19.4	67	10.3	0	0	---	0.00	30.496 
23:10	19.4	19.4	19.4	67	10.3	0	0	---	0.00	30.496 
23:15	19.4	19.4	19.4	68	10.6	0	1	270	0.00	30.498 
23:20	19.4	19.4	19.4	68	10.6	0	0	---	0.00	30.498 
23:25	19.4	19.4	19.4	68	10.6	0	0	---	0.00	30.498 
23:30	19.4	19.4	19.4	68	10.6	0	1	270	0.00	30.499 
23:35	19.4	19.4	19.4	68	10.6	0	1	270	0.00	30.499 
23:40	19.5	19.5	19.5	68	10.7	0	1	270	0.00	30.499 
23:45	19.7	19.7	19.7	67	10.5	0	2	270	0.00	30.504 
23:50	19.9	19.9	19.9	67	10.7	0	1	248	0.00	30.504 
23:55	19.9	19.9	19.9	67	10.7	0	2	248	0.00	30.504 

CoCoRaHS
IN-AL-39
A2 Web Hosting
Creative Commons License
GoDaddy
search engine by freefind advanced

loaded 2018-11-17 05:40:13 • last modified 2010-11-18 10:43:29
Privacy PolicyDisclaimer
• wx.awcolley.com is powered by PmWiki v.2002016 •
• all content (unless otherwise noted) © 2018 A W Colley